Seiwamaru — JD3227 — position and weather

sailwx.info

Track history (hours):
 
Tides and Currents Weather Stations Pressure Air Temp Water Temp Dewpoint Dewpoint Depression Visibility Wind Speed Wind Dir Waves Ship Positions

Seiwamaru

Last reported at 2018-Jun-25 17:29 UTC. Time now 2018-Jun-25 17:31 UTC.
Position N 35°21' E 139°54'.

Length 38 m; draft 4.1 m.

Type: Tug. MMSI: 432816000.

Date/timePositionNaut miles runAvg speedWind from/ knotsBaromVisibWave heightAir tempDewpointWater temp
2018-Jun-25 17:29N 35°21' E 139°54'0 0.0
2018-Jun-25 17:00N 35°21' E 139°54'0 0.0
2018-Jun-25 16:30N 35°21' E 139°54'0 0.0
2018-Jun-25 15:52N 35°21' E 139°54'0 0.0
2018-Jun-25 15:30N 35°21' E 139°54'2 3.2
2018-Jun-25 15:00N 35°22' E 139°52'0 0.0
2018-Jun-25 14:30N 35°22' E 139°52'0 0.8
2018-Jun-25 14:00N 35°22' E 139°52'2 4.7
2018-Jun-25 13:30N 35°24' E 139°49'1 2.4
2018-Jun-25 13:00N 35°25' E 139°49'1 2.2
2018-Jun-25 12:30N 35°26' E 139°50'4 8.0
2018-Jun-25 11:58N 35°22' E 139°53'1 2.2
2018-Jun-25 11:29N 35°21' E 139°54'0 0.0
2018-Jun-25 10:59N 35°21' E 139°54'0 0.0
2018-Jun-25 10:30N 35°21' E 139°54'0 0.0
2018-Jun-25 09:59N 35°21' E 139°54'0 0.0
2018-Jun-25 09:30N 35°21' E 139°54'0 0.0
2018-Jun-25 09:00N 35°21' E 139°54'0 0.0
2018-Jun-25 08:30N 35°21' E 139°54'0 0.0
2018-Jun-25 08:00N 35°21' E 139°54'0 0.0
2018-Jun-25 07:25N 35°21' E 139°54'0 0.0
2018-Jun-25 07:00N 35°21' E 139°54'0 0.0
2018-Jun-25 06:29N 35°21' E 139°54'0 0.0
2018-Jun-25 05:59N 35°21' E 139°54'0 0.0
2018-Jun-25 05:30N 35°21' E 139°54'1 1.5
2018-Jun-25 04:59N 35°22' E 139°53'1 1.1
2018-Jun-25 04:30N 35°22' E 139°52'2 1.8
2018-Jun-25 03:29N 35°23' E 139°50'2 4.7
2018-Jun-25 03:00N 35°24' E 139°48'2 4.4
2018-Jun-25 02:30N 35°22' E 139°48'2 3.3
2018-Jun-25 02:00N 35°21' E 139°49'0 0.0
2018-Jun-25 01:30N 35°21' E 139°49'0 0.1
2018-Jun-25 01:00N 35°21' E 139°49'1 2.4
2018-Jun-25 00:30N 35°22' E 139°49'1 2.0
2018-Jun-25 00:00N 35°23' E 139°48'0 0.4
2018-Jun-24 23:30N 35°23' E 139°48'3 5.3
2018-Jun-24 23:00N 35°23' E 139°51'1 2.0
2018-Jun-24 22:30N 35°22' E 139°52'0 0.3
2018-Jun-24 22:00N 35°22' E 139°52'1 2.5
2018-Jun-24 21:30N 35°21' E 139°54'0 0.0
2018-Jun-24 20:55N 35°21' E 139°54'0 0.0
2018-Jun-24 20:27N 35°21' E 139°54'0 0.0
2018-Jun-24 20:00N 35°21' E 139°54'0 0.0
2018-Jun-24 19:30N 35°21' E 139°54'0 0.0
2018-Jun-24 19:00N 35°21' E 139°54'0 0.0
2018-Jun-24 18:29N 35°21' E 139°54'0 0.0
2018-Jun-24 18:00N 35°21' E 139°54'0 0.0
2018-Jun-24 17:30N 35°21' E 139°54'0 0.0
2018-Jun-24 17:00N 35°21' E 139°54'0 0.0
2018-Jun-24 16:30N 35°21' E 139°54'0 0.0
2018-Jun-24 15:59N 35°21' E 139°54'0 0.0
2018-Jun-24 15:30N 35°21' E 139°54'0 0.0
2018-Jun-24 15:00N 35°21' E 139°54'0 0.0
2018-Jun-24 14:30N 35°21' E 139°54'0 0.0
2018-Jun-24 13:59N 35°21' E 139°54'0 0.0
2018-Jun-24 13:25N 35°21' E 139°54'0 0.0
2018-Jun-24 13:00N 35°21' E 139°54'0 0.0
2018-Jun-24 12:30N 35°21' E 139°54'0 0.0
2018-Jun-24 12:00N 35°21' E 139°54'0 0.0
2018-Jun-24 11:30N 35°21' E 139°54'0 0.0
2018-Jun-24 11:00N 35°21' E 139°54'0 0.0
2018-Jun-24 10:30N 35°21' E 139°54'0 0.0
2018-Jun-24 10:00N 35°21' E 139°54'0 0.0
2018-Jun-24 09:29N 35°21' E 139°54'0 0.0
2018-Jun-24 09:00N 35°21' E 139°54'0 0.0
2018-Jun-24 08:30N 35°21' E 139°54'0 0.0
2018-Jun-24 08:00N 35°21' E 139°54'0 0.0
2018-Jun-24 07:30N 35°21' E 139°54'0 0.0
2018-Jun-24 06:58N 35°21' E 139°54'1 3.0
2018-Jun-24 06:29N 35°22' E 139°52'0 0.1
2018-Jun-24 06:00N 35°22' E 139°52'2 3.0
2018-Jun-24 05:13N 35°23' E 139°50'1 4.5
2018-Jun-24 05:00N 35°24' E 139°49'1 1.2
2018-Jun-24 04:30N 35°24' E 139°48'4 7.4
2018-Jun-24 04:00N 35°22' E 139°52'0 0.2
2018-Jun-24 03:30N 35°22' E 139°52'1 0.3
2018-Jun-24 01:16N 35°22' E 139°53'0 0.2
2018-Jun-24 00:59N 35°22' E 139°53'2 3.8
2018-Jun-24 00:29N 35°23' E 139°51'3 5.3
2018-Jun-24 00:00N 35°21' E 139°49'0 0.3
2018-Jun-23 23:30N 35°21' E 139°49'1 2.1
2018-Jun-23 23:00N 35°22' E 139°50'1 1.6
2018-Jun-23 22:30N 35°22' E 139°51'1 1.6
2018-Jun-23 22:00N 35°22' E 139°50'0 0.1
2018-Jun-23 21:30N 35°22' E 139°50'1 1.5
2018-Jun-23 21:00N 35°22' E 139°51'1 2.0
2018-Jun-23 20:30N 35°23' E 139°51'2 4.8
2018-Jun-23 20:00N 35°21' E 139°54'0 0.0
2018-Jun-23 19:30N 35°21' E 139°54'0 0.0
2018-Jun-23 19:00N 35°21' E 139°54'0 0.0
2018-Jun-23 18:27N 35°21' E 139°54'0 0.0
2018-Jun-23 17:58N 35°21' E 139°54'0 0.0
2018-Jun-23 17:27N 35°21' E 139°54'0 0.0
2018-Jun-23 17:00N 35°21' E 139°54'0 0.0
2018-Jun-23 16:30N 35°21' E 139°54'0 0.0
2018-Jun-23 16:00N 35°21' E 139°54'0 0.0
2018-Jun-23 15:30N 35°21' E 139°54'0 0.0
2018-Jun-23 15:00N 35°21' E 139°54'0 0.0
2018-Jun-23 14:30N 35°21' E 139°54'0 0.0
2018-Jun-23 14:00N 35°21' E 139°54'0 0.0
2018-Jun-23 13:30N 35°21' E 139°54'0 0.0
2018-Jun-23 13:00N 35°21' E 139°54'0 0.0
2018-Jun-23 12:30N 35°21' E 139°54'0 0.0
2018-Jun-23 11:48N 35°21' E 139°54'0 0.0
2018-Jun-23 06:15N 35°21' E 139°54'1 2.9
2018-Jun-23 06:00N 35°22' E 139°53'0 0.4
2018-Jun-23 05:12N 35°22' E 139°53'0 0.0
2018-Jun-23 03:46N 35°22' E 139°53'0 1.8
2018-Jun-23 03:29N 35°22' E 139°53'3 5.2
2018-Jun-23 03:00N 35°23' E 139°50'2 4.4
2018-Jun-23 02:30N 35°21' E 139°49'0 0.0
2018-Jun-23 02:00N 35°21' E 139°49'0 0.1
2018-Jun-23 01:30N 35°21' E 139°49'1 1.8
2018-Jun-23 01:00N 35°22' E 139°49'1 2.9
2018-Jun-23 00:30N 35°23' E 139°48'0 0.1
2018-Jun-23 00:00N 35°23' E 139°48'1 2.1
2018-Jun-22 23:30N 35°22' E 139°49'2 3.1
2018-Jun-22 23:00N 35°22' E 139°51'1 2.4
2018-Jun-22 22:30N 35°22' E 139°50'0 0.1
2018-Jun-22 22:00N 35°22' E 139°50'1 1.6
2018-Jun-22 21:30N 35°22' E 139°51'0 0.8
2018-Jun-22 21:00N 35°22' E 139°51'1 2.1
2018-Jun-22 20:29N 35°22' E 139°52'2 1.4
2018-Jun-22 19:16N 35°21' E 139°54'0 0.0
2018-Jun-22 18:59N 35°21' E 139°54'0 0.0
2018-Jun-22 18:29N 35°21' E 139°54'0 0.0
2018-Jun-22 17:58N 35°21' E 139°54'0 0.0
2018-Jun-22 17:30N 35°21' E 139°54'0 0.0
2018-Jun-22 17:00N 35°21' E 139°54'0 0.0
2018-Jun-22 16:27N 35°21' E 139°54'0 0.0
2018-Jun-22 16:00N 35°21' E 139°54'0 0.0
2018-Jun-22 15:30N 35°21' E 139°54'0 0.0
2018-Jun-22 15:00N 35°21' E 139°54'0 0.0
2018-Jun-22 14:30N 35°21' E 139°54'0 0.0
2018-Jun-22 14:00N 35°21' E 139°54'0 0.0
2018-Jun-22 13:30N 35°21' E 139°54'0 0.0
2018-Jun-22 12:56N 35°21' E 139°54'0 0.0
2018-Jun-22 12:30N 35°21' E 139°54'0 0.0
2018-Jun-22 12:00N 35°21' E 139°54'0 0.0
2018-Jun-22 11:30N 35°21' E 139°54'0 0.0
2018-Jun-22 10:58N 35°21' E 139°54'0 0.0
2018-Jun-22 10:28N 35°21' E 139°54'1 2.0
2018-Jun-22 09:57N 35°22' E 139°53'0 0.3
2018-Jun-22 09:28N 35°22' E 139°53'1 1.5
2018-Jun-22 08:53N 35°21' E 139°54'0 0.0
2018-Jun-22 08:11N 35°21' E 139°54'0 0.0
2018-Jun-22 07:53N 35°21' E 139°54'0 0.0
2018-Jun-22 07:20N 35°21' E 139°54'0 0.0
2018-Jun-22 07:00N 35°21' E 139°54'0 0.0
2018-Jun-22 06:30N 35°21' E 139°54'0 0.0
2018-Jun-22 06:00N 35°21' E 139°54'0 0.0
2018-Jun-22 05:28N 35°21' E 139°54'0 0.0
2018-Jun-22 04:58N 35°21' E 139°54'0 0.0
2018-Jun-22 04:30N 35°21' E 139°54'0 0.0
2018-Jun-22 04:00N 35°21' E 139°54'0 0.0
2018-Jun-22 02:45N 35°21' E 139°54'0 0.0
2018-Jun-22 02:24N 35°21' E 139°54'1 3.6
2018-Jun-22 02:00N 35°22' E 139°52'0 0.0
2018-Jun-22 01:30N 35°22' E 139°52'0 0.6
2018-Jun-22 00:58N 35°22' E 139°52'2 4.2
2018-Jun-22 00:30N 35°23' E 139°50'3 5.0
2018-Jun-22 00:00N 35°26' E 139°49'1 1.7
2018-Jun-21 23:30N 35°26' E 139°50'3 6.0
2018-Jun-21 22:56N 35°23' E 139°51'2 5.1
2018-Jun-21 22:30N 35°21' E 139°54'0 0.0
2018-Jun-21 22:00N 35°21' E 139°54'0 0.0
2018-Jun-21 21:30N 35°21' E 139°54'0 0.0
2018-Jun-21 21:00N 35°21' E 139°54'0 0.0
2018-Jun-21 20:30N 35°21' E 139°54'0 0.0
2018-Jun-21 20:00N 35°21' E 139°54'0 0.0
2018-Jun-21 19:30N 35°21' E 139°54'0 0.0
2018-Jun-21 19:00N 35°21' E 139°54'0 0.0
2018-Jun-21 18:30N 35°21' E 139°54'0 0.0
2018-Jun-21 18:00N 35°21' E 139°54'0 0.0
2018-Jun-21 17:30N 35°21' E 139°54'0 0.0
2018-Jun-21 17:00N 35°21' E 139°54'0 0.0
2018-Jun-21 16:30N 35°21' E 139°54'0 0.0
2018-Jun-21 16:00N 35°21' E 139°54'0 0.0
2018-Jun-21 15:29N 35°21' E 139°54'0 0.0
2018-Jun-21 14:59N 35°21' E 139°54'0 0.0
2018-Jun-21 14:29N 35°21' E 139°54'0 0.0
2018-Jun-21 14:00N 35°21' E 139°54'0 0.0
2018-Jun-21 13:30N 35°21' E 139°54'0 0.0
2018-Jun-21 12:59N 35°21' E 139°54'0 0.0
2018-Jun-21 12:30N 35°21' E 139°54'3 5.0
2018-Jun-21 11:59N 35°23' E 139°51'1 2.6
2018-Jun-21 11:30N 35°21' E 139°51'2 4.4
2018-Jun-21 11:00N 35°23' E 139°49'2 4.4
2018-Jun-21 10:28N 35°22' E 139°52'1 2.8
2018-Jun-21 10:00N 35°22' E 139°53'2 4.6
2018-Jun-21 09:28N 35°23' E 139°51'1 3.1
2018-Jun-21 09:00N 35°21' E 139°51'1 1.3
2018-Jun-21 08:30N 35°22' E 139°50'3 4.8
2018-Jun-21 07:54N 35°21' E 139°54'0 0.0
2018-Jun-21 07:29N 35°21' E 139°54'0 0.0
2018-Jun-21 07:00N 35°21' E 139°54'0 0.0
2018-Jun-21 06:30N 35°21' E 139°54'0 0.0
2018-Jun-21 06:00N 35°21' E 139°54'0 0.0
2018-Jun-21 05:30N 35°21' E 139°54'0 0.0
2018-Jun-21 05:00N 35°21' E 139°54'0 0.0
2018-Jun-21 04:30N 35°21' E 139°54'0 0.0
2018-Jun-21 03:59N 35°21' E 139°54'3 4.3
2018-Jun-21 03:17N 35°23' E 139°50'2 8.4
2018-Jun-21 03:01N 35°21' E 139°49'0 0.2
2018-Jun-21 02:30N 35°21' E 139°49'0 0.1
2018-Jun-21 02:00N 35°21' E 139°49'0 0.5
2018-Jun-21 01:30N 35°21' E 139°49'2 4.1
2018-Jun-21 01:00N 35°23' E 139°48'0 0.2
2018-Jun-21 00:30N 35°23' E 139°48'3 5.8
2018-Jun-21 00:00N 35°22' E 139°52'2 3.2
2018-Jun-20 23:28N 35°21' E 139°54'0 0.0
2018-Jun-20 23:00N 35°21' E 139°54'0 0.0
2018-Jun-20 22:30N 35°21' E 139°54'0 0.0
2018-Jun-20 22:00N 35°21' E 139°54'0 0.0
2018-Jun-20 21:30N 35°21' E 139°54'0 0.0
2018-Jun-20 21:00N 35°21' E 139°54'0 0.0
2018-Jun-20 20:30N 35°21' E 139°54'0 0.0
2018-Jun-20 20:00N 35°21' E 139°54'0 0.0
2018-Jun-20 19:30N 35°21' E 139°54'0 0.0
2018-Jun-20 19:00N 35°21' E 139°54'0 0.0
2018-Jun-20 18:30N 35°21' E 139°54'0 0.0
2018-Jun-20 17:52N 35°21' E 139°54'0 0.0
2018-Jun-20 17:30N 35°21' E 139°54'0 0.0
2018-Jun-20 16:51N 35°21' E 139°54'0 0.0
2018-Jun-20 16:30N 35°21' E 139°54'0 0.0
2018-Jun-20 15:59N 35°21' E 139°54'0 0.0
2018-Jun-20 15:27N 35°21' E 139°54'0 0.0
2018-Jun-20 14:59N 35°21' E 139°54'0 0.0
2018-Jun-20 14:25N 35°21' E 139°54'0 0.0
2018-Jun-20 13:58N 35°21' E 139°54'0 0.0
2018-Jun-20 12:47N 35°21' E 139°54'0 0.0
2018-Jun-20 12:30N 35°21' E 139°54'0 0.0
2018-Jun-20 12:00N 35°21' E 139°54'0 0.0
2018-Jun-20 11:30N 35°21' E 139°54'1 2.0
2018-Jun-20 10:53N 35°22' E 139°52'0 0.8
2018-Jun-20 10:27N 35°22' E 139°52'0 0.2
2018-Jun-20 10:00N 35°22' E 139°52'1 2.1
2018-Jun-20 09:30N 35°23' E 139°51'3 5.2
2018-Jun-20 08:58N 35°24' E 139°48'2 4.1
2018-Jun-20 08:29N 35°26' E 139°50'4 7.4
2018-Jun-20 07:58N 35°22' E 139°51'0 1.0
2018-Jun-20 07:30N 35°22' E 139°52'1 1.0
2018-Jun-20 06:58N 35°22' E 139°53'1 0.2
2018-Jun-19 23:38N 35°21' E 139°54'1 3.9
2018-Jun-19 23:29N 35°22' E 139°53'0 0.3
2018-Jun-19 23:00N 35°22' E 139°53'0 0.9
2018-Jun-19 22:27N 35°22' E 139°54'0 0.0
2018-Jun-19 21:57N 35°22' E 139°54'0 0.0
2018-Jun-19 21:30N 35°22' E 139°54'0 0.0
2018-Jun-19 20:58N 35°22' E 139°54'0 0.0
2018-Jun-19 20:29N 35°22' E 139°54'0 0.0
2018-Jun-19 19:58N 35°22' E 139°54'0 0.0
2018-Jun-19 19:29N 35°22' E 139°54'0 0.0
2018-Jun-19 19:00N 35°22' E 139°54'0 0.0
2018-Jun-19 18:26N 35°22' E 139°54'0 0.0
2018-Jun-19 18:00N 35°22' E 139°54'0 0.0
2018-Jun-19 17:29N 35°22' E 139°54'0 0.0
2018-Jun-19 17:00N 35°22' E 139°54'1 0.1
2018-Jun-19 05:27N 35°22' E 139°53'1 2.8
2018-Jun-19 05:00N 35°21' E 139°54'0 0.0
2018-Jun-19 04:30N 35°21' E 139°54'0 0.0
2018-Jun-19 03:59N 35°21' E 139°54'0 0.0
2018-Jun-19 00:49N 35°21' E 139°54'2 4.6
2018-Jun-19 00:28N 35°22' E 139°52'3 6.3
2018-Jun-19 00:00N 35°21' E 139°49'0 0.4
2018-Jun-18 23:30N 35°21' E 139°49'2 3.3
2018-Jun-18 23:00N 35°22' E 139°50'3 1.3
2018-Jun-18 20:35N 35°21' E 139°54'0 0.0
2018-Jun-18 19:24N 35°21' E 139°54'0 0.0
2018-Jun-18 18:54N 35°21' E 139°54'0 0.0
2018-Jun-18 18:28N 35°21' E 139°54'0 0.0
2018-Jun-18 09:53N 35°21' E 139°54'3 6.8
2018-Jun-18 09:29N 35°23' E 139°51'1 1.6
2018-Jun-18 09:00N 35°22' E 139°52'2 3.5
2018-Jun-18 08:27N 35°21' E 139°54'0 0.0
2018-Jun-18 07:58N 35°21' E 139°54'0 0.0
2018-Jun-18 07:29N 35°21' E 139°54'0 0.0
2018-Jun-18 06:59N 35°21' E 139°54'0 0.0
2018-Jun-18 06:30N 35°21' E 139°54'3 6.3
2018-Jun-18 06:00N 35°23' E 139°50'1 2.4
2018-Jun-18 05:30N 35°22' E 139°51'0 0.7
2018-Jun-18 05:00N 35°22' E 139°51'1 1.4
2018-Jun-18 04:30N 35°22' E 139°50'0 0.8
2018-Jun-18 04:01N 35°22' E 139°50'1 2.2
2018-Jun-18 03:29N 35°21' E 139°51'0 0.2
2018-Jun-18 02:59N 35°22' E 139°51'1 1.6
2018-Jun-18 02:30N 35°22' E 139°50'1 2.9
2018-Jun-18 02:00N 35°21' E 139°49'0 0.1
2018-Jun-18 01:30N 35°21' E 139°49'1 1.3
2018-Jun-18 01:00N 35°21' E 139°49'2 4.8
2018-Jun-18 00:30N 35°23' E 139°47'3 5.2
2018-Jun-17 23:58N 35°23' E 139°50'2 3.4
2018-Jun-17 23:30N 35°22' E 139°52'0 0.0
2018-Jun-17 22:59N 35°22' E 139°52'1 1.4
2018-Jun-17 22:29N 35°23' E 139°51'3 5.5
2018-Jun-17 22:00N 35°24' E 139°48'3 5.1
2018-Jun-17 21:29N 35°26' E 139°50'0 0.3
2018-Jun-17 20:52N 35°26' E 139°50'4 9.7
2018-Jun-17 20:29N 35°23' E 139°52'2 4.3
2018-Jun-17 20:00N 35°21' E 139°54'0 0.0
2018-Jun-17 19:30N 35°21' E 139°54'0 0.0
2018-Jun-17 18:59N 35°21' E 139°54'0 0.0
2018-Jun-17 18:30N 35°21' E 139°54'0 0.0
2018-Jun-17 18:00N 35°21' E 139°54'0 0.0
2018-Jun-17 17:30N 35°21' E 139°54'0 0.0
2018-Jun-17 17:00N 35°21' E 139°54'0 0.0
2018-Jun-17 16:30N 35°21' E 139°54'0 0.0
2018-Jun-17 16:00N 35°21' E 139°54'0 0.0
2018-Jun-17 15:30N 35°21' E 139°54'0 0.0
2018-Jun-17 15:00N 35°21' E 139°54'0 0.0
2018-Jun-17 14:30N 35°21' E 139°54'0 0.0
2018-Jun-17 13:59N 35°21' E 139°54'0 0.0
2018-Jun-17 13:29N 35°21' E 139°54'0 0.0
2018-Jun-17 13:00N 35°21' E 139°54'0 0.0
2018-Jun-17 12:28N 35°21' E 139°54'0 0.0
2018-Jun-17 12:00N 35°21' E 139°54'0 0.0
2018-Jun-17 11:30N 35°21' E 139°54'0 0.0
2018-Jun-17 11:00N 35°21' E 139°54'0 0.0
2018-Jun-17 10:30N 35°21' E 139°54'0 0.0
2018-Jun-17 09:59N 35°21' E 139°54'0 0.0
2018-Jun-17 09:30N 35°21' E 139°54'0 0.0
2018-Jun-17 09:00N 35°21' E 139°54'0 0.0
2018-Jun-17 08:30N 35°21' E 139°54'0 0.0
2018-Jun-17 08:00N 35°21' E 139°54'0 0.0
2018-Jun-17 07:30N 35°21' E 139°54'0 0.0
2018-Jun-17 07:00N 35°21' E 139°54'0 0.0
2018-Jun-17 06:30N 35°21' E 139°54'0 0.0
2018-Jun-17 06:00N 35°21' E 139°54'0 0.0
2018-Jun-17 05:30N 35°21' E 139°54'0 0.0
2018-Jun-17 05:00N 35°21' E 139°54'0 0.0
2018-Jun-17 04:30N 35°21' E 139°54'0 0.0
2018-Jun-17 04:00N 35°21' E 139°54'0 0.0
2018-Jun-17 03:30N 35°21' E 139°54'2 3.0
2018-Jun-17 02:59N 35°22' E 139°52'3 6.1
2018-Jun-17 02:30N 35°21' E 139°49'0 0.5
2018-Jun-17 02:00N 35°21' E 139°49'2 4.3
2018-Jun-17 01:30N 35°23' E 139°50'3 5.8
2018-Jun-17 01:00N 35°21' E 139°54'0 0.0
2018-Jun-17 00:27N 35°21' E 139°54'1 1.5
2018-Jun-16 23:54N 35°22' E 139°53'2 5.7
2018-Jun-16 23:30N 35°22' E 139°50'1 1.4
2018-Jun-16 23:00N 35°21' E 139°51'3 4.6
2018-Jun-16 22:27N 35°23' E 139°49'2 4.1
2018-Jun-16 22:00N 35°24' E 139°50'3 5.6
2018-Jun-16 21:30N 35°22' E 139°51'1 1.0
2018-Jun-16 21:00N 35°21' E 139°51'1 2.9
2018-Jun-16 20:30N 35°23' E 139°50'3 0.2
2018-Jun-16 05:36N 35°22' E 139°54'1 5.5
2018-Jun-16 05:27N 35°22' E 139°53'3 7.4
2018-Jun-16 05:00N 35°21' E 139°49'0 0.0
2018-Jun-16 04:30N 35°21' E 139°49'0 0.0
2018-Jun-16 04:00N 35°21' E 139°49'0 0.2
2018-Jun-16 03:30N 35°21' E 139°49'2 4.9
2018-Jun-16 03:00N 35°23' E 139°48'2 4.0
2018-Jun-16 02:30N 35°22' E 139°46'0 0.4
2018-Jun-16 02:00N 35°22' E 139°46'3 6.7
2018-Jun-16 01:30N 35°22' E 139°50'1 1.8
2018-Jun-16 01:00N 35°22' E 139°51'2 5.0
2018-Jun-16 00:30N 35°24' E 139°49'2 2.9
2018-Jun-15 23:57N 35°23' E 139°51'  
Track history (hours):
 
Tides and Currents Weather Stations Pressure Air Temp Water Temp Dewpoint Dewpoint Depression Visibility Wind Speed Wind Dir Waves Ship Positions

Seiwamaru

Last reported at 2018-Jun-25 17:29 UTC. Time now 2018-Jun-25 17:31 UTC.
Position N 35°21' E 139°54'.

Length 38 m; draft 4.1 m.

Type: Tug. MMSI: 432816000.

Date/timePositionNaut miles runAvg speedWind from/ knotsBaromVisibWave heightAir tempDewpointWater temp
2018-Jun-25 17:29N 35°21' E 139°54'0 0.0
2018-Jun-25 17:00N 35°21' E 139°54'0 0.0
2018-Jun-25 16:30N 35°21' E 139°54'0 0.0
2018-Jun-25 15:52N 35°21' E 139°54'0 0.0
2018-Jun-25 15:30N 35°21' E 139°54'2 3.2
2018-Jun-25 15:00N 35°22' E 139°52'0 0.0
2018-Jun-25 14:30N 35°22' E 139°52'0 0.8
2018-Jun-25 14:00N 35°22' E 139°52'2 4.7
2018-Jun-25 13:30N 35°24' E 139°49'1 2.4
2018-Jun-25 13:00N 35°25' E 139°49'1 2.2
2018-Jun-25 12:30N 35°26' E 139°50'4 8.0
2018-Jun-25 11:58N 35°22' E 139°53'1 2.2
2018-Jun-25 11:29N 35°21' E 139°54'0 0.0
2018-Jun-25 10:59N 35°21' E 139°54'0 0.0
2018-Jun-25 10:30N 35°21' E 139°54'0 0.0
2018-Jun-25 09:59N 35°21' E 139°54'0 0.0
2018-Jun-25 09:30N 35°21' E 139°54'0 0.0
2018-Jun-25 09:00N 35°21' E 139°54'0 0.0
2018-Jun-25 08:30N 35°21' E 139°54'0 0.0
2018-Jun-25 08:00N 35°21' E 139°54'0 0.0
2018-Jun-25 07:25N 35°21' E 139°54'0 0.0
2018-Jun-25 07:00N 35°21' E 139°54'0 0.0
2018-Jun-25 06:29N 35°21' E 139°54'0 0.0
2018-Jun-25 05:59N 35°21' E 139°54'0 0.0
2018-Jun-25 05:30N 35°21' E 139°54'1 1.5
2018-Jun-25 04:59N 35°22' E 139°53'1 1.1
2018-Jun-25 04:30N 35°22' E 139°52'2 1.8
2018-Jun-25 03:29N 35°23' E 139°50'2 4.7
2018-Jun-25 03:00N 35°24' E 139°48'2 4.4
2018-Jun-25 02:30N 35°22' E 139°48'2 3.3
2018-Jun-25 02:00N 35°21' E 139°49'0 0.0
2018-Jun-25 01:30N 35°21' E 139°49'0 0.1
2018-Jun-25 01:00N 35°21' E 139°49'1 2.4
2018-Jun-25 00:30N 35°22' E 139°49'1 2.0
2018-Jun-25 00:00N 35°23' E 139°48'0 0.4
2018-Jun-24 23:30N 35°23' E 139°48'3 5.3
2018-Jun-24 23:00N 35°23' E 139°51'1 2.0
2018-Jun-24 22:30N 35°22' E 139°52'0 0.3
2018-Jun-24 22:00N 35°22' E 139°52'1 2.5
2018-Jun-24 21:30N 35°21' E 139°54'0 0.0
2018-Jun-24 20:55N 35°21' E 139°54'0 0.0
2018-Jun-24 20:27N 35°21' E 139°54'0 0.0
2018-Jun-24 20:00N 35°21' E 139°54'0 0.0
2018-Jun-24 19:30N 35°21' E 139°54'0 0.0
2018-Jun-24 19:00N 35°21' E 139°54'0 0.0
2018-Jun-24 18:29N 35°21' E 139°54'0 0.0
2018-Jun-24 18:00N 35°21' E 139°54'0 0.0
2018-Jun-24 17:30N 35°21' E 139°54'0 0.0
2018-Jun-24 17:00N 35°21' E 139°54'0 0.0
2018-Jun-24 16:30N 35°21' E 139°54'0 0.0
2018-Jun-24 15:59N 35°21' E 139°54'0 0.0
2018-Jun-24 15:30N 35°21' E 139°54'0 0.0
2018-Jun-24 15:00N 35°21' E 139°54'0 0.0
2018-Jun-24 14:30N 35°21' E 139°54'0 0.0
2018-Jun-24 13:59N 35°21' E 139°54'0 0.0
2018-Jun-24 13:25N 35°21' E 139°54'0 0.0
2018-Jun-24 13:00N 35°21' E 139°54'0 0.0
2018-Jun-24 12:30N 35°21' E 139°54'0 0.0
2018-Jun-24 12:00N 35°21' E 139°54'0 0.0
2018-Jun-24 11:30N 35°21' E 139°54'0 0.0
2018-Jun-24 11:00N 35°21' E 139°54'0 0.0
2018-Jun-24 10:30N 35°21' E 139°54'0 0.0
2018-Jun-24 10:00N 35°21' E 139°54'0 0.0
2018-Jun-24 09:29N 35°21' E 139°54'0 0.0
2018-Jun-24 09:00N 35°21' E 139°54'0 0.0
2018-Jun-24 08:30N 35°21' E 139°54'0 0.0
2018-Jun-24 08:00N 35°21' E 139°54'0 0.0
2018-Jun-24 07:30N 35°21' E 139°54'0 0.0
2018-Jun-24 06:58N 35°21' E 139°54'1 3.0
2018-Jun-24 06:29N 35°22' E 139°52'0 0.1
2018-Jun-24 06:00N 35°22' E 139°52'2 3.0
2018-Jun-24 05:13N 35°23' E 139°50'1 4.5
2018-Jun-24 05:00N 35°24' E 139°49'1 1.2
2018-Jun-24 04:30N 35°24' E 139°48'4 7.4
2018-Jun-24 04:00N 35°22' E 139°52'0 0.2
2018-Jun-24 03:30N 35°22' E 139°52'1 0.3
2018-Jun-24 01:16N 35°22' E 139°53'0 0.2
2018-Jun-24 00:59N 35°22' E 139°53'2 3.8
2018-Jun-24 00:29N 35°23' E 139°51'3 5.3
2018-Jun-24 00:00N 35°21' E 139°49'0 0.3
2018-Jun-23 23:30N 35°21' E 139°49'1 2.1
2018-Jun-23 23:00N 35°22' E 139°50'1 1.6
2018-Jun-23 22:30N 35°22' E 139°51'1 1.6
2018-Jun-23 22:00N 35°22' E 139°50'0 0.1
2018-Jun-23 21:30N 35°22' E 139°50'1 1.5
2018-Jun-23 21:00N 35°22' E 139°51'1 2.0
2018-Jun-23 20:30N 35°23' E 139°51'2 4.8
2018-Jun-23 20:00N 35°21' E 139°54'0 0.0
2018-Jun-23 19:30N 35°21' E 139°54'0 0.0
2018-Jun-23 19:00N 35°21' E 139°54'0 0.0
2018-Jun-23 18:27N 35°21' E 139°54'0 0.0
2018-Jun-23 17:58N 35°21' E 139°54'0 0.0
2018-Jun-23 17:27N 35°21' E 139°54'0 0.0
2018-Jun-23 17:00N 35°21' E 139°54'0 0.0
2018-Jun-23 16:30N 35°21' E 139°54'0 0.0
2018-Jun-23 16:00N 35°21' E 139°54'0 0.0
2018-Jun-23 15:30N 35°21' E 139°54'0 0.0
2018-Jun-23 15:00N 35°21' E 139°54'0 0.0
2018-Jun-23 14:30N 35°21' E 139°54'0 0.0
2018-Jun-23 14:00N 35°21' E 139°54'0 0.0
2018-Jun-23 13:30N 35°21' E 139°54'0 0.0
2018-Jun-23 13:00N 35°21' E 139°54'0 0.0
2018-Jun-23 12:30N 35°21' E 139°54'0 0.0
2018-Jun-23 11:48N 35°21' E 139°54'0 0.0
2018-Jun-23 06:15N 35°21' E 139°54'1 2.9
2018-Jun-23 06:00N 35°22' E 139°53'0 0.4
2018-Jun-23 05:12N 35°22' E 139°53'0 0.0
2018-Jun-23 03:46N 35°22' E 139°53'0 1.8
2018-Jun-23 03:29N 35°22' E 139°53'3 5.2
2018-Jun-23 03:00N 35°23' E 139°50'2 4.4
2018-Jun-23 02:30N 35°21' E 139°49'0 0.0
2018-Jun-23 02:00N 35°21' E 139°49'0 0.1
2018-Jun-23 01:30N 35°21' E 139°49'1 1.8
2018-Jun-23 01:00N 35°22' E 139°49'1 2.9
2018-Jun-23 00:30N 35°23' E 139°48'0 0.1
2018-Jun-23 00:00N 35°23' E 139°48'1 2.1
2018-Jun-22 23:30N 35°22' E 139°49'2 3.1
2018-Jun-22 23:00N 35°22' E 139°51'1 2.4
2018-Jun-22 22:30N 35°22' E 139°50'0 0.1
2018-Jun-22 22:00N 35°22' E 139°50'1 1.6
2018-Jun-22 21:30N 35°22' E 139°51'0 0.8
2018-Jun-22 21:00N 35°22' E 139°51'1 2.1
2018-Jun-22 20:29N 35°22' E 139°52'2 1.4
2018-Jun-22 19:16N 35°21' E 139°54'0 0.0
2018-Jun-22 18:59N 35°21' E 139°54'0 0.0
2018-Jun-22 18:29N 35°21' E 139°54'0 0.0
2018-Jun-22 17:58N 35°21' E 139°54'0 0.0
2018-Jun-22 17:30N 35°21' E 139°54'0 0.0
2018-Jun-22 17:00N 35°21' E 139°54'0 0.0
2018-Jun-22 16:27N 35°21' E 139°54'0 0.0
2018-Jun-22 16:00N 35°21' E 139°54'0 0.0
2018-Jun-22 15:30N 35°21' E 139°54'0 0.0
2018-Jun-22 15:00N 35°21' E 139°54'0 0.0
2018-Jun-22 14:30N 35°21' E 139°54'0 0.0
2018-Jun-22 14:00N 35°21' E 139°54'0 0.0
2018-Jun-22 13:30N 35°21' E 139°54'0 0.0
2018-Jun-22 12:56N 35°21' E 139°54'0 0.0
2018-Jun-22 12:30N 35°21' E 139°54'0 0.0
2018-Jun-22 12:00N 35°21' E 139°54'0 0.0
2018-Jun-22 11:30N 35°21' E 139°54'0 0.0
2018-Jun-22 10:58N 35°21' E 139°54'0 0.0
2018-Jun-22 10:28N 35°21' E 139°54'1 2.0
2018-Jun-22 09:57N 35°22' E 139°53'0 0.3
2018-Jun-22 09:28N 35°22' E 139°53'1 1.5
2018-Jun-22 08:53N 35°21' E 139°54'0 0.0
2018-Jun-22 08:11N 35°21' E 139°54'0 0.0
2018-Jun-22 07:53N 35°21' E 139°54'0 0.0
2018-Jun-22 07:20N 35°21' E 139°54'0 0.0
2018-Jun-22 07:00N 35°21' E 139°54'0 0.0
2018-Jun-22 06:30N 35°21' E 139°54'0 0.0
2018-Jun-22 06:00N 35°21' E 139°54'0 0.0
2018-Jun-22 05:28N 35°21' E 139°54'0 0.0
2018-Jun-22 04:58N 35°21' E 139°54'0 0.0
2018-Jun-22 04:30N 35°21' E 139°54'0 0.0
2018-Jun-22 04:00N 35°21' E 139°54'0 0.0
2018-Jun-22 02:45N 35°21' E 139°54'0 0.0
2018-Jun-22 02:24N 35°21' E 139°54'1 3.6
2018-Jun-22 02:00N 35°22' E 139°52'0 0.0
2018-Jun-22 01:30N 35°22' E 139°52'0 0.6
2018-Jun-22 00:58N 35°22' E 139°52'2 4.2
2018-Jun-22 00:30N 35°23' E 139°50'3 5.0
2018-Jun-22 00:00N 35°26' E 139°49'1 1.7
2018-Jun-21 23:30N 35°26' E 139°50'3 6.0
2018-Jun-21 22:56N 35°23' E 139°51'2 5.1
2018-Jun-21 22:30N 35°21' E 139°54'0 0.0
2018-Jun-21 22:00N 35°21' E 139°54'0 0.0
2018-Jun-21 21:30N 35°21' E 139°54'0 0.0
2018-Jun-21 21:00N 35°21' E 139°54'0 0.0
2018-Jun-21 20:30N 35°21' E 139°54'0 0.0
2018-Jun-21 20:00N 35°21' E 139°54'0 0.0
2018-Jun-21 19:30N 35°21' E 139°54'0 0.0
2018-Jun-21 19:00N 35°21' E 139°54'0 0.0
2018-Jun-21 18:30N 35°21' E 139°54'0 0.0
2018-Jun-21 18:00N 35°21' E 139°54'0 0.0
2018-Jun-21 17:30N 35°21' E 139°54'0 0.0
2018-Jun-21 17:00N 35°21' E 139°54'0 0.0
2018-Jun-21 16:30N 35°21' E 139°54'0 0.0
2018-Jun-21 16:00N 35°21' E 139°54'0 0.0
2018-Jun-21 15:29N 35°21' E 139°54'0 0.0
2018-Jun-21 14:59N 35°21' E 139°54'0 0.0
2018-Jun-21 14:29N 35°21' E 139°54'0 0.0
2018-Jun-21 14:00N 35°21' E 139°54'0 0.0
2018-Jun-21 13:30N 35°21' E 139°54'0 0.0
2018-Jun-21 12:59N 35°21' E 139°54'0 0.0
2018-Jun-21 12:30N 35°21' E 139°54'3 5.0
2018-Jun-21 11:59N 35°23' E 139°51'1 2.6
2018-Jun-21 11:30N 35°21' E 139°51'2 4.4
2018-Jun-21 11:00N 35°23' E 139°49'2 4.4
2018-Jun-21 10:28N 35°22' E 139°52'1 2.8
2018-Jun-21 10:00N 35°22' E 139°53'2 4.6
2018-Jun-21 09:28N 35°23' E 139°51'1 3.1
2018-Jun-21 09:00N 35°21' E 139°51'1 1.3
2018-Jun-21 08:30N 35°22' E 139°50'3 4.8
2018-Jun-21 07:54N 35°21' E 139°54'0 0.0
2018-Jun-21 07:29N 35°21' E 139°54'0 0.0
2018-Jun-21 07:00N 35°21' E 139°54'0 0.0
2018-Jun-21 06:30N 35°21' E 139°54'0 0.0
2018-Jun-21 06:00N 35°21' E 139°54'0 0.0
2018-Jun-21 05:30N 35°21' E 139°54'0 0.0
2018-Jun-21 05:00N 35°21' E 139°54'0 0.0
2018-Jun-21 04:30N 35°21' E 139°54'0 0.0
2018-Jun-21 03:59N 35°21' E 139°54'3 4.3
2018-Jun-21 03:17N 35°23' E 139°50'2 8.4
2018-Jun-21 03:01N 35°21' E 139°49'0 0.2
2018-Jun-21 02:30N 35°21' E 139°49'0 0.1
2018-Jun-21 02:00N 35°21' E 139°49'0 0.5
2018-Jun-21 01:30N 35°21' E 139°49'2 4.1
2018-Jun-21 01:00N 35°23' E 139°48'0 0.2
2018-Jun-21 00:30N 35°23' E 139°48'3 5.8
2018-Jun-21 00:00N 35°22' E 139°52'2 3.2
2018-Jun-20 23:28N 35°21' E 139°54'0 0.0
2018-Jun-20 23:00N 35°21' E 139°54'0 0.0
2018-Jun-20 22:30N 35°21' E 139°54'0 0.0
2018-Jun-20 22:00N 35°21' E 139°54'0 0.0
2018-Jun-20 21:30N 35°21' E 139°54'0 0.0
2018-Jun-20 21:00N 35°21' E 139°54'0 0.0
2018-Jun-20 20:30N 35°21' E 139°54'0 0.0
2018-Jun-20 20:00N 35°21' E 139°54'0 0.0
2018-Jun-20 19:30N 35°21' E 139°54'0 0.0
2018-Jun-20 19:00N 35°21' E 139°54'0 0.0
2018-Jun-20 18:30N 35°21' E 139°54'0 0.0
2018-Jun-20 17:52N 35°21' E 139°54'0 0.0
2018-Jun-20 17:30N 35°21' E 139°54'0 0.0
2018-Jun-20 16:51N 35°21' E 139°54'0 0.0
2018-Jun-20 16:30N 35°21' E 139°54'0 0.0
2018-Jun-20 15:59N 35°21' E 139°54'0 0.0
2018-Jun-20 15:27N 35°21' E 139°54'0 0.0
2018-Jun-20 14:59N 35°21' E 139°54'0 0.0
2018-Jun-20 14:25N 35°21' E 139°54'0 0.0
2018-Jun-20 13:58N 35°21' E 139°54'0 0.0
2018-Jun-20 12:47N 35°21' E 139°54'0 0.0
2018-Jun-20 12:30N 35°21' E 139°54'0 0.0
2018-Jun-20 12:00N 35°21' E 139°54'0 0.0
2018-Jun-20 11:30N 35°21' E 139°54'1 2.0
2018-Jun-20 10:53N 35°22' E 139°52'0 0.8
2018-Jun-20 10:27N 35°22' E 139°52'0 0.2
2018-Jun-20 10:00N 35°22' E 139°52'1 2.1
2018-Jun-20 09:30N 35°23' E 139°51'3 5.2
2018-Jun-20 08:58N 35°24' E 139°48'2 4.1
2018-Jun-20 08:29N 35°26' E 139°50'4 7.4
2018-Jun-20 07:58N 35°22' E 139°51'0 1.0
2018-Jun-20 07:30N 35°22' E 139°52'1 1.0
2018-Jun-20 06:58N 35°22' E 139°53'1 0.2
2018-Jun-19 23:38N 35°21' E 139°54'1 3.9
2018-Jun-19 23:29N 35°22' E 139°53'0 0.3
2018-Jun-19 23:00N 35°22' E 139°53'0 0.9
2018-Jun-19 22:27N 35°22' E 139°54'0 0.0
2018-Jun-19 21:57N 35°22' E 139°54'0 0.0
2018-Jun-19 21:30N 35°22' E 139°54'0 0.0
2018-Jun-19 20:58N 35°22' E 139°54'0 0.0
2018-Jun-19 20:29N 35°22' E 139°54'0 0.0
2018-Jun-19 19:58N 35°22' E 139°54'0 0.0
2018-Jun-19 19:29N 35°22' E 139°54'0 0.0
2018-Jun-19 19:00N 35°22' E 139°54'0 0.0
2018-Jun-19 18:26N 35°22' E 139°54'0 0.0
2018-Jun-19 18:00N 35°22' E 139°54'0 0.0
2018-Jun-19 17:29N 35°22' E 139°54'0 0.0
2018-Jun-19 17:00N 35°22' E 139°54'1 0.1
2018-Jun-19 05:27N 35°22' E 139°53'1 2.8
2018-Jun-19 05:00N 35°21' E 139°54'0 0.0
2018-Jun-19 04:30N 35°21' E 139°54'0 0.0
2018-Jun-19 03:59N 35°21' E 139°54'0 0.0
2018-Jun-19 00:49N 35°21' E 139°54'2 4.6
2018-Jun-19 00:28N 35°22' E 139°52'3 6.3
2018-Jun-19 00:00N 35°21' E 139°49'0 0.4
2018-Jun-18 23:30N 35°21' E 139°49'2 3.3
2018-Jun-18 23:00N 35°22' E 139°50'3 1.3
2018-Jun-18 20:35N 35°21' E 139°54'0 0.0
2018-Jun-18 19:24N 35°21' E 139°54'0 0.0
2018-Jun-18 18:54N 35°21' E 139°54'0 0.0
2018-Jun-18 18:28N 35°21' E 139°54'0 0.0
2018-Jun-18 09:53N 35°21' E 139°54'3 6.8
2018-Jun-18 09:29N 35°23' E 139°51'1 1.6
2018-Jun-18 09:00N 35°22' E 139°52'2 3.5
2018-Jun-18 08:27N 35°21' E 139°54'0 0.0
2018-Jun-18 07:58N 35°21' E 139°54'0 0.0
2018-Jun-18 07:29N 35°21' E 139°54'0 0.0
2018-Jun-18 06:59N 35°21' E 139°54'0 0.0
2018-Jun-18 06:30N 35°21' E 139°54'3 6.3
2018-Jun-18 06:00N 35°23' E 139°50'1 2.4
2018-Jun-18 05:30N 35°22' E 139°51'0 0.7
2018-Jun-18 05:00N 35°22' E 139°51'1 1.4
2018-Jun-18 04:30N 35°22' E 139°50'0 0.8
2018-Jun-18 04:01N 35°22' E 139°50'1 2.2
2018-Jun-18 03:29N 35°21' E 139°51'0 0.2
2018-Jun-18 02:59N 35°22' E 139°51'1 1.6
2018-Jun-18 02:30N 35°22' E 139°50'1 2.9
2018-Jun-18 02:00N 35°21' E 139°49'0 0.1
2018-Jun-18 01:30N 35°21' E 139°49'1 1.3
2018-Jun-18 01:00N 35°21' E 139°49'2 4.8
2018-Jun-18 00:30N 35°23' E 139°47'3 5.2
2018-Jun-17 23:58N 35°23' E 139°50'2 3.4
2018-Jun-17 23:30N 35°22' E 139°52'0 0.0
2018-Jun-17 22:59N 35°22' E 139°52'1 1.4
2018-Jun-17 22:29N 35°23' E 139°51'3 5.5
2018-Jun-17 22:00N 35°24' E 139°48'3 5.1
2018-Jun-17 21:29N 35°26' E 139°50'0 0.3
2018-Jun-17 20:52N 35°26' E 139°50'4 9.7
2018-Jun-17 20:29N 35°23' E 139°52'2 4.3
2018-Jun-17 20:00N 35°21' E 139°54'0 0.0
2018-Jun-17 19:30N 35°21' E 139°54'0 0.0
2018-Jun-17 18:59N 35°21' E 139°54'0 0.0
2018-Jun-17 18:30N 35°21' E 139°54'0 0.0
2018-Jun-17 18:00N 35°21' E 139°54'0 0.0
2018-Jun-17 17:30N 35°21' E 139°54'0 0.0
2018-Jun-17 17:00N 35°21' E 139°54'0 0.0
2018-Jun-17 16:30N 35°21' E 139°54'0 0.0
2018-Jun-17 16:00N 35°21' E 139°54'0 0.0
2018-Jun-17 15:30N 35°21' E 139°54'0 0.0
2018-Jun-17 15:00N 35°21' E 139°54'0 0.0
2018-Jun-17 14:30N 35°21' E 139°54'0 0.0
2018-Jun-17 13:59N 35°21' E 139°54'0 0.0
2018-Jun-17 13:29N 35°21' E 139°54'0 0.0
2018-Jun-17 13:00N 35°21' E 139°54'0 0.0
2018-Jun-17 12:28N 35°21' E 139°54'0 0.0
2018-Jun-17 12:00N 35°21' E 139°54'0 0.0
2018-Jun-17 11:30N 35°21' E 139°54'0 0.0
2018-Jun-17 11:00N 35°21' E 139°54'0 0.0
2018-Jun-17 10:30N 35°21' E 139°54'0 0.0
2018-Jun-17 09:59N 35°21' E 139°54'0 0.0
2018-Jun-17 09:30N 35°21' E 139°54'0 0.0
2018-Jun-17 09:00N 35°21' E 139°54'0 0.0
2018-Jun-17 08:30N 35°21' E 139°54'0 0.0
2018-Jun-17 08:00N 35°21' E 139°54'0 0.0
2018-Jun-17 07:30N 35°21' E 139°54'0 0.0
2018-Jun-17 07:00N 35°21' E 139°54'0 0.0
2018-Jun-17 06:30N 35°21' E 139°54'0 0.0
2018-Jun-17 06:00N 35°21' E 139°54'0 0.0
2018-Jun-17 05:30N 35°21' E 139°54'0 0.0
2018-Jun-17 05:00N 35°21' E 139°54'0 0.0
2018-Jun-17 04:30N 35°21' E 139°54'0 0.0
2018-Jun-17 04:00N 35°21' E 139°54'0 0.0
2018-Jun-17 03:30N 35°21' E 139°54'2 3.0
2018-Jun-17 02:59N 35°22' E 139°52'3 6.1
2018-Jun-17 02:30N 35°21' E 139°49'0 0.5
2018-Jun-17 02:00N 35°21' E 139°49'2 4.3
2018-Jun-17 01:30N 35°23' E 139°50'3 5.8
2018-Jun-17 01:00N 35°21' E 139°54'0 0.0
2018-Jun-17 00:27N 35°21' E 139°54'1 1.5
2018-Jun-16 23:54N 35°22' E 139°53'2 5.7
2018-Jun-16 23:30N 35°22' E 139°50'1 1.4
2018-Jun-16 23:00N 35°21' E 139°51'3 4.6
2018-Jun-16 22:27N 35°23' E 139°49'2 4.1
2018-Jun-16 22:00N 35°24' E 139°50'3 5.6
2018-Jun-16 21:30N 35°22' E 139°51'1 1.0
2018-Jun-16 21:00N 35°21' E 139°51'1 2.9
2018-Jun-16 20:30N 35°23' E 139°50'3 0.2
2018-Jun-16 05:36N 35°22' E 139°54'1 5.5
2018-Jun-16 05:27N 35°22' E 139°53'3 7.4
2018-Jun-16 05:00N 35°21' E 139°49'0 0.0
2018-Jun-16 04:30N 35°21' E 139°49'0 0.0
2018-Jun-16 04:00N 35°21' E 139°49'0 0.2
2018-Jun-16 03:30N 35°21' E 139°49'2 4.9
2018-Jun-16 03:00N 35°23' E 139°48'2 4.0
2018-Jun-16 02:30N 35°22' E 139°46'0 0.4
2018-Jun-16 02:00N 35°22' E 139°46'3 6.7
2018-Jun-16 01:30N 35°22' E 139°50'1 1.8
2018-Jun-16 01:00N 35°22' E 139°51'2 5.0
2018-Jun-16 00:30N 35°24' E 139°49'2 2.9
2018-Jun-15 23:57N 35°23' E 139°51'  

Dump ship's entire track history